sensor_id;sensor_type;location;lat;lon;timestamp;temperature;humidity
9998;DHT22;5038;53.064;8.624;2023-09-19T00:01:08;17.50;99.90
9998;DHT22;5038;53.064;8.624;2023-09-19T00:03:38;17.50;99.90
9998;DHT22;5038;53.064;8.624;2023-09-19T00:06:11;17.50;99.90
9998;DHT22;5038;53.064;8.624;2023-09-19T00:08:40;17.50;99.90
9998;DHT22;5038;53.064;8.624;2023-09-19T00:11:10;17.50;99.90
9998;DHT22;5038;53.064;8.624;2023-09-19T00:13:38;17.50;99.90
9998;DHT22;5038;53.064;8.624;2023-09-19T00:16:09;17.50;99.90
9998;DHT22;5038;53.064;8.624;2023-09-19T00:18:38;17.50;99.90
9998;DHT22;5038;53.064;8.624;2023-09-19T00:21:06;17.50;99.90
9998;DHT22;5038;53.064;8.624;2023-09-19T00:23:36;17.50;99.90
9998;DHT22;5038;53.064;8.624;2023-09-19T00:26:04;17.50;99.90
9998;DHT22;5038;53.064;8.624;2023-09-19T00:28:33;17.50;99.90
9998;DHT22;5038;53.064;8.624;2023-09-19T00:31:02;17.50;99.90
9998;DHT22;5038;53.064;8.624;2023-09-19T00:33:31;17.50;99.90
9998;DHT22;5038;53.064;8.624;2023-09-19T00:36:01;17.50;99.90
9998;DHT22;5038;53.064;8.624;2023-09-19T00:38:31;17.50;99.90
9998;DHT22;5038;53.064;8.624;2023-09-19T00:41:01;17.50;99.90
9998;DHT22;5038;53.064;8.624;2023-09-19T00:43:29;17.50;99.90
9998;DHT22;5038;53.064;8.624;2023-09-19T00:46:01;17.50;99.90
9998;DHT22;5038;53.064;8.624;2023-09-19T00:48:31;17.50;99.90
9998;DHT22;5038;53.064;8.624;2023-09-19T00:51:07;17.50;99.90
9998;DHT22;5038;53.064;8.624;2023-09-19T00:53:35;17.50;99.90
9998;DHT22;5038;53.064;8.624;2023-09-19T00:56:05;17.40;99.90
9998;DHT22;5038;53.064;8.624;2023-09-19T00:58:34;17.40;99.90
9998;DHT22;5038;53.064;8.624;2023-09-19T01:01:04;17.40;99.90
9998;DHT22;5038;53.064;8.624;2023-09-19T01:03:36;17.40;99.90
9998;DHT22;5038;53.064;8.624;2023-09-19T01:06:05;17.40;99.90
9998;DHT22;5038;53.064;8.624;2023-09-19T01:08:34;17.40;99.90
9998;DHT22;5038;53.064;8.624;2023-09-19T01:11:11;17.40;99.90
9998;DHT22;5038;53.064;8.624;2023-09-19T01:13:50;17.30;99.90
9998;DHT22;5038;53.064;8.624;2023-09-19T01:16:32;17.30;99.90
9998;DHT22;5038;53.064;8.624;2023-09-19T01:19:13;17.30;99.90
9998;DHT22;5038;53.064;8.624;2023-09-19T01:21:55;17.20;99.90
9998;DHT22;5038;53.064;8.624;2023-09-19T01:25:07;17.20;99.90
9998;DHT22;5038;53.064;8.624;2023-09-19T01:28:15;17.10;99.90
9998;DHT22;5038;53.064;8.624;2023-09-19T01:30:53;17.00;99.90
9998;DHT22;5038;53.064;8.624;2023-09-19T01:33:24;16.90;99.90
9998;DHT22;5038;53.064;8.624;2023-09-19T01:35:53;16.80;99.90
9998;DHT22;5038;53.064;8.624;2023-09-19T01:38:26;16.80;99.90
9998;DHT22;5038;53.064;8.624;2023-09-19T01:41:00;16.70;99.90
9998;DHT22;5038;53.064;8.624;2023-09-19T01:43:35;16.70;99.90
9998;DHT22;5038;53.064;8.624;2023-09-19T01:46:12;16.60;99.90
9998;DHT22;5038;53.064;8.624;2023-09-19T01:48:43;16.50;99.90
9998;DHT22;5038;53.064;8.624;2023-09-19T01:51:20;16.50;99.90
9998;DHT22;5038;53.064;8.624;2023-09-19T01:53:53;16.50;99.90
9998;DHT22;5038;53.064;8.624;2023-09-19T01:56:28;16.40;99.90
9998;DHT22;5038;53.064;8.624;2023-09-19T01:59:05;16.40;99.90
9998;DHT22;5038;53.064;8.624;2023-09-19T02:01:38;16.30;99.90
9998;DHT22;5038;53.064;8.624;2023-09-19T02:04:07;16.30;99.90
9998;DHT22;5038;53.064;8.624;2023-09-19T02:06:40;16.20;99.90
9998;DHT22;5038;53.064;8.624;2023-09-19T02:09:08;16.20;99.90
9998;DHT22;5038;53.064;8.624;2023-09-19T02:11:36;16.20;99.90
9998;DHT22;5038;53.064;8.624;2023-09-19T02:14:05;16.10;99.90
9998;DHT22;5038;53.064;8.624;2023-09-19T02:16:36;16.10;99.90
9998;DHT22;5038;53.064;8.624;2023-09-19T02:19:05;16.10;99.90
9998;DHT22;5038;53.064;8.624;2023-09-19T02:21:34;16.00;99.90
9998;DHT22;5038;53.064;8.624;2023-09-19T02:24:02;16.00;99.90
9998;DHT22;5038;53.064;8.624;2023-09-19T02:26:30;16.00;99.90
9998;DHT22;5038;53.064;8.624;2023-09-19T02:28:58;16.00;99.90
9998;DHT22;5038;53.064;8.624;2023-09-19T02:31:28;16.00;99.90
9998;DHT22;5038;53.064;8.624;2023-09-19T02:33:58;15.90;99.90
9998;DHT22;5038;53.064;8.624;2023-09-19T02:36:26;15.90;99.90
9998;DHT22;5038;53.064;8.624;2023-09-19T02:38:55;15.90;99.90
9998;DHT22;5038;53.064;8.624;2023-09-19T02:41:23;15.90;99.90
9998;DHT22;5038;53.064;8.624;2023-09-19T02:43:51;15.90;99.90
9998;DHT22;5038;53.064;8.624;2023-09-19T02:46:19;15.80;99.90
9998;DHT22;5038;53.064;8.624;2023-09-19T02:48:47;15.80;99.90
9998;DHT22;5038;53.064;8.624;2023-09-19T02:51:17;15.80;99.90
9998;DHT22;5038;53.064;8.624;2023-09-19T02:53:45;15.80;99.90
9998;DHT22;5038;53.064;8.624;2023-09-19T02:56:14;15.80;99.90
9998;DHT22;5038;53.064;8.624;2023-09-19T02:58:42;15.80;99.90
9998;DHT22;5038;53.064;8.624;2023-09-19T03:01:11;15.80;99.90
9998;DHT22;5038;53.064;8.624;2023-09-19T03:03:40;15.70;99.90
9998;DHT22;5038;53.064;8.624;2023-09-19T03:06:09;15.80;99.90
9998;DHT22;5038;53.064;8.624;2023-09-19T03:08:39;15.70;99.90
9998;DHT22;5038;53.064;8.624;2023-09-19T03:11:09;15.70;99.90
9998;DHT22;5038;53.064;8.624;2023-09-19T03:13:41;15.70;99.90
9998;DHT22;5038;53.064;8.624;2023-09-19T03:16:09;15.60;99.90
9998;DHT22;5038;53.064;8.624;2023-09-19T03:18:38;15.60;99.90
9998;DHT22;5038;53.064;8.624;2023-09-19T03:21:06;15.60;99.90
9998;DHT22;5038;53.064;8.624;2023-09-19T03:23:34;15.60;99.90
9998;DHT22;5038;53.064;8.624;2023-09-19T03:26:04;15.60;99.90
9998;DHT22;5038;53.064;8.624;2023-09-19T03:28:33;15.60;99.90
9998;DHT22;5038;53.064;8.624;2023-09-19T03:31:02;15.60;99.90
9998;DHT22;5038;53.064;8.624;2023-09-19T03:33:33;15.60;99.90
9998;DHT22;5038;53.064;8.624;2023-09-19T03:36:03;15.60;99.90
9998;DHT22;5038;53.064;8.624;2023-09-19T03:38:33;15.50;99.90
9998;DHT22;5038;53.064;8.624;2023-09-19T03:41:03;15.50;99.90
9998;DHT22;5038;53.064;8.624;2023-09-19T03:43:34;15.50;99.90
9998;DHT22;5038;53.064;8.624;2023-09-19T03:46:03;15.50;99.90
9998;DHT22;5038;53.064;8.624;2023-09-19T03:48:33;15.50;99.90
9998;DHT22;5038;53.064;8.624;2023-09-19T03:51:02;15.40;99.90
9998;DHT22;5038;53.064;8.624;2023-09-19T03:53:31;15.50;99.90
9998;DHT22;5038;53.064;8.624;2023-09-19T03:55:59;15.40;99.90
9998;DHT22;5038;53.064;8.624;2023-09-19T03:58:32;15.40;99.90
9998;DHT22;5038;53.064;8.624;2023-09-19T04:01:02;15.40;99.90
9998;DHT22;5038;53.064;8.624;2023-09-19T04:03:30;15.40;99.90
9998;DHT22;5038;53.064;8.624;2023-09-19T04:06:12;15.40;99.90
9998;DHT22;5038;53.064;8.624;2023-09-19T04:08:40;15.40;99.90
9998;DHT22;5038;53.064;8.624;2023-09-19T04:11:09;15.40;99.90
9998;DHT22;5038;53.064;8.624;2023-09-19T04:13:39;15.30;99.90
9998;DHT22;5038;53.064;8.624;2023-09-19T04:16:08;15.30;99.90
9998;DHT22;5038;53.064;8.624;2023-09-19T04:18:37;15.30;99.90
9998;DHT22;5038;53.064;8.624;2023-09-19T04:21:07;15.30;99.90
9998;DHT22;5038;53.064;8.624;2023-09-19T04:23:36;15.30;99.90
9998;DHT22;5038;53.064;8.624;2023-09-19T04:26:05;15.30;99.90
9998;DHT22;5038;53.064;8.624;2023-09-19T04:28:34;15.30;99.90
9998;DHT22;5038;53.064;8.624;2023-09-19T04:31:06;15.30;99.90
9998;DHT22;5038;53.064;8.624;2023-09-19T04:33:38;15.30;99.90
9998;DHT22;5038;53.064;8.624;2023-09-19T04:36:07;15.20;99.90
9998;DHT22;5038;53.064;8.624;2023-09-19T04:38:55;15.20;99.90
9998;DHT22;5038;53.064;8.624;2023-09-19T04:41:23;15.20;99.90
9998;DHT22;5038;53.064;8.624;2023-09-19T04:43:51;15.20;99.90
9998;DHT22;5038;53.064;8.624;2023-09-19T04:46:21;15.20;99.90
9998;DHT22;5038;53.064;8.624;2023-09-19T04:48:49;15.20;99.90
9998;DHT22;5038;53.064;8.624;2023-09-19T04:51:17;15.20;99.90
9998;DHT22;5038;53.064;8.624;2023-09-19T04:53:46;15.20;99.90
9998;DHT22;5038;53.064;8.624;2023-09-19T04:56:14;15.20;99.90
9998;DHT22;5038;53.064;8.624;2023-09-19T04:58:43;15.20;99.90
9998;DHT22;5038;53.064;8.624;2023-09-19T05:01:11;15.20;99.90
9998;DHT22;5038;53.064;8.624;2023-09-19T05:03:43;15.20;99.90
9998;DHT22;5038;53.064;8.624;2023-09-19T05:06:16;15.20;99.90
9998;DHT22;5038;53.064;8.624;2023-09-19T05:08:44;15.20;99.90
9998;DHT22;5038;53.064;8.624;2023-09-19T05:11:13;15.20;99.90
9998;DHT22;5038;53.064;8.624;2023-09-19T05:13:41;15.20;99.90
9998;DHT22;5038;53.064;8.624;2023-09-19T05:16:10;15.20;99.90
9998;DHT22;5038;53.064;8.624;2023-09-19T05:18:38;15.20;99.90
9998;DHT22;5038;53.064;8.624;2023-09-19T05:21:07;15.20;99.90
9998;DHT22;5038;53.064;8.624;2023-09-19T05:23:36;15.20;99.90
9998;DHT22;5038;53.064;8.624;2023-09-19T05:26:05;15.20;99.90
9998;DHT22;5038;53.064;8.624;2023-09-19T05:28:33;15.20;99.90
9998;DHT22;5038;53.064;8.624;2023-09-19T05:31:02;15.20;99.90
9998;DHT22;5038;53.064;8.624;2023-09-19T05:33:30;15.20;99.90
9998;DHT22;5038;53.064;8.624;2023-09-19T05:36:00;15.20;99.90
9998;DHT22;5038;53.064;8.624;2023-09-19T05:38:29;15.20;99.90
9998;DHT22;5038;53.064;8.624;2023-09-19T05:40:57;15.20;99.90
9998;DHT22;5038;53.064;8.624;2023-09-19T05:43:25;15.20;99.90
9998;DHT22;5038;53.064;8.624;2023-09-19T05:45:53;15.30;99.90
9998;DHT22;5038;53.064;8.624;2023-09-19T05:48:23;15.30;99.90
9998;DHT22;5038;53.064;8.624;2023-09-19T05:50:51;15.30;99.90
9998;DHT22;5038;53.064;8.624;2023-09-19T05:53:19;15.30;99.90
9998;DHT22;5038;53.064;8.624;2023-09-19T05:55:49;15.30;99.90
9998;DHT22;5038;53.064;8.624;2023-09-19T05:58:17;15.30;99.90
9998;DHT22;5038;53.064;8.624;2023-09-19T06:00:46;15.30;99.90
9998;DHT22;5038;53.064;8.624;2023-09-19T06:03:16;15.40;99.90
9998;DHT22;5038;53.064;8.624;2023-09-19T06:05:46;15.40;99.90
9998;DHT22;5038;53.064;8.624;2023-09-19T06:08:16;15.40;99.90
9998;DHT22;5038;53.064;8.624;2023-09-19T06:10:44;15.40;99.90
9998;DHT22;5038;53.064;8.624;2023-09-19T06:13:15;15.40;99.90
9998;DHT22;5038;53.064;8.624;2023-09-19T06:15:43;15.40;99.90
9998;DHT22;5038;53.064;8.624;2023-09-19T06:18:13;15.40;99.90
9998;DHT22;5038;53.064;8.624;2023-09-19T06:20:46;15.40;99.90
9998;DHT22;5038;53.064;8.624;2023-09-19T06:23:15;15.40;99.90
9998;DHT22;5038;53.064;8.624;2023-09-19T06:25:44;15.40;99.90
9998;DHT22;5038;53.064;8.624;2023-09-19T06:28:12;15.50;99.90
9998;DHT22;5038;53.064;8.624;2023-09-19T06:30:42;15.50;99.90
9998;DHT22;5038;53.064;8.624;2023-09-19T06:33:11;15.50;99.90
9998;DHT22;5038;53.064;8.624;2023-09-19T06:35:42;15.50;99.90
9998;DHT22;5038;53.064;8.624;2023-09-19T06:38:11;15.50;99.90
9998;DHT22;5038;53.064;8.624;2023-09-19T06:40:40;15.50;99.90
9998;DHT22;5038;53.064;8.624;2023-09-19T06:43:10;15.50;99.90
9998;DHT22;5038;53.064;8.624;2023-09-19T06:45:38;15.50;99.90
9998;DHT22;5038;53.064;8.624;2023-09-19T06:48:08;15.60;99.90
9998;DHT22;5038;53.064;8.624;2023-09-19T06:50:37;15.60;99.90
9998;DHT22;5038;53.064;8.624;2023-09-19T06:53:08;15.60;99.90
9998;DHT22;5038;53.064;8.624;2023-09-19T06:55:36;15.60;99.90
9998;DHT22;5038;53.064;8.624;2023-09-19T06:58:05;15.60;99.90
9998;DHT22;5038;53.064;8.624;2023-09-19T07:00:34;15.60;99.90
9998;DHT22;5038;53.064;8.624;2023-09-19T07:03:04;15.70;99.90
9998;DHT22;5038;53.064;8.624;2023-09-19T07:05:39;15.70;99.90
9998;DHT22;5038;53.064;8.624;2023-09-19T07:08:10;15.70;99.90
9998;DHT22;5038;53.064;8.624;2023-09-19T07:10:40;15.70;99.90
9998;DHT22;5038;53.064;8.624;2023-09-19T07:13:16;15.70;99.90
9998;DHT22;5038;53.064;8.624;2023-09-19T07:15:44;15.70;99.90
9998;DHT22;5038;53.064;8.624;2023-09-19T07:18:15;15.80;99.90
9998;DHT22;5038;53.064;8.624;2023-09-19T07:20:45;15.80;99.90
9998;DHT22;5038;53.064;8.624;2023-09-19T07:23:17;15.90;99.90
9998;DHT22;5038;53.064;8.624;2023-09-19T07:25:47;15.90;99.90
9998;DHT22;5038;53.064;8.624;2023-09-19T07:28:17;15.90;99.90
9998;DHT22;5038;53.064;8.624;2023-09-19T07:30:45;16.00;99.90
9998;DHT22;5038;53.064;8.624;2023-09-19T07:33:13;16.00;99.90
9998;DHT22;5038;53.064;8.624;2023-09-19T07:35:46;16.00;99.90
9998;DHT22;5038;53.064;8.624;2023-09-19T07:38:15;16.10;99.90
9998;DHT22;5038;53.064;8.624;2023-09-19T07:40:44;16.10;99.90
9998;DHT22;5038;53.064;8.624;2023-09-19T07:43:13;16.10;99.90
9998;DHT22;5038;53.064;8.624;2023-09-19T07:45:41;16.20;99.90
9998;DHT22;5038;53.064;8.624;2023-09-19T07:48:10;16.20;99.90
9998;DHT22;5038;53.064;8.624;2023-09-19T07:50:41;16.30;99.90
9998;DHT22;5038;53.064;8.624;2023-09-19T07:53:13;16.30;99.90
9998;DHT22;5038;53.064;8.624;2023-09-19T07:55:42;16.40;99.90
9998;DHT22;5038;53.064;8.624;2023-09-19T07:58:15;16.50;99.90
9998;DHT22;5038;53.064;8.624;2023-09-19T08:00:43;16.50;99.90
9998;DHT22;5038;53.064;8.624;2023-09-19T08:03:13;16.60;99.90
9998;DHT22;5038;53.064;8.624;2023-09-19T08:05:44;16.70;99.90
9998;DHT22;5038;53.064;8.624;2023-09-19T08:08:14;16.70;99.90
9998;DHT22;5038;53.064;8.624;2023-09-19T08:10:43;16.70;99.90
9998;DHT22;5038;53.064;8.624;2023-09-19T08:13:13;16.80;99.90
9998;DHT22;5038;53.064;8.624;2023-09-19T08:15:44;16.90;99.90
9998;DHT22;5038;53.064;8.624;2023-09-19T08:18:13;16.90;99.90
9998;DHT22;5038;53.064;8.624;2023-09-19T08:20:41;16.90;99.90
9998;DHT22;5038;53.064;8.624;2023-09-19T08:23:14;17.00;99.90
9998;DHT22;5038;53.064;8.624;2023-09-19T08:25:44;17.00;99.90
9998;DHT22;5038;53.064;8.624;2023-09-19T08:28:12;17.00;99.90
9998;DHT22;5038;53.064;8.624;2023-09-19T08:30:45;17.10;99.90
9998;DHT22;5038;53.064;8.624;2023-09-19T08:33:13;17.00;99.90
9998;DHT22;5038;53.064;8.624;2023-09-19T08:35:43;17.00;99.90
9998;DHT22;5038;53.064;8.624;2023-09-19T08:38:14;17.10;99.90
9998;DHT22;5038;53.064;8.624;2023-09-19T08:40:42;17.10;99.90
9998;DHT22;5038;53.064;8.624;2023-09-19T08:43:11;17.10;99.90
9998;DHT22;5038;53.064;8.624;2023-09-19T08:45:39;17.20;99.90
9998;DHT22;5038;53.064;8.624;2023-09-19T08:48:17;17.20;99.90
9998;DHT22;5038;53.064;8.624;2023-09-19T08:50:51;17.30;99.90
9998;DHT22;5038;53.064;8.624;2023-09-19T08:53:27;17.30;99.90
9998;DHT22;5038;53.064;8.624;2023-09-19T08:56:00;17.30;99.90
9998;DHT22;5038;53.064;8.624;2023-09-19T08:58:34;17.40;99.90
9998;DHT22;5038;53.064;8.624;2023-09-19T09:01:05;17.40;99.90
9998;DHT22;5038;53.064;8.624;2023-09-19T09:03:34;17.40;99.90
9998;DHT22;5038;53.064;8.624;2023-09-19T09:06:03;17.50;99.90
9998;DHT22;5038;53.064;8.624;2023-09-19T09:08:32;17.50;99.90
9998;DHT22;5038;53.064;8.624;2023-09-19T09:11:01;17.50;99.90
9998;DHT22;5038;53.064;8.624;2023-09-19T09:13:30;17.60;99.90
9998;DHT22;5038;53.064;8.624;2023-09-19T09:15:58;17.60;99.90
9998;DHT22;5038;53.064;8.624;2023-09-19T09:18:27;17.70;99.90
9998;DHT22;5038;53.064;8.624;2023-09-19T09:20:56;17.70;99.90
9998;DHT22;5038;53.064;8.624;2023-09-19T09:23:27;17.80;99.90
9998;DHT22;5038;53.064;8.624;2023-09-19T09:25:59;17.80;99.90
9998;DHT22;5038;53.064;8.624;2023-09-19T09:28:30;17.80;99.90
9998;DHT22;5038;53.064;8.624;2023-09-19T09:31:01;17.90;99.90
9998;DHT22;5038;53.064;8.624;2023-09-19T09:33:35;17.90;99.90
9998;DHT22;5038;53.064;8.624;2023-09-19T09:36:04;17.90;99.90
9998;DHT22;5038;53.064;8.624;2023-09-19T09:38:43;17.90;99.90
9998;DHT22;5038;53.064;8.624;2023-09-19T09:41:15;18.00;99.90
9998;DHT22;5038;53.064;8.624;2023-09-19T09:43:54;18.00;99.90
9998;DHT22;5038;53.064;8.624;2023-09-19T09:46:22;18.00;99.90
9998;DHT22;5038;53.064;8.624;2023-09-19T09:49:10;18.10;99.90
9998;DHT22;5038;53.064;8.624;2023-09-19T09:51:48;18.10;99.90
9998;DHT22;5038;53.064;8.624;2023-09-19T09:54:26;18.10;99.90
9998;DHT22;5038;53.064;8.624;2023-09-19T09:57:05;18.10;99.90
9998;DHT22;5038;53.064;8.624;2023-09-19T09:59:46;18.10;99.90
9998;DHT22;5038;53.064;8.624;2023-09-19T10:02:14;18.10;99.90
9998;DHT22;5038;53.064;8.624;2023-09-19T10:04:47;18.10;99.90
9998;DHT22;5038;53.064;8.624;2023-09-19T10:07:37;18.20;99.90
9998;DHT22;5038;53.064;8.624;2023-09-19T10:10:11;18.20;99.90
9998;DHT22;5038;53.064;8.624;2023-09-19T10:12:49;18.20;99.90
9998;DHT22;5038;53.064;8.624;2023-09-19T10:15:18;18.20;99.90
9998;DHT22;5038;53.064;8.624;2023-09-19T10:17:48;18.20;99.90
9998;DHT22;5038;53.064;8.624;2023-09-19T10:20:17;18.20;99.90
9998;DHT22;5038;53.064;8.624;2023-09-19T10:23:00;18.20;99.90
9998;DHT22;5038;53.064;8.624;2023-09-19T10:25:29;18.20;99.90
9998;DHT22;5038;53.064;8.624;2023-09-19T10:28:01;18.20;99.90
9998;DHT22;5038;53.064;8.624;2023-09-19T10:30:31;18.30;99.90
9998;DHT22;5038;53.064;8.624;2023-09-19T10:33:02;18.30;99.90
9998;DHT22;5038;53.064;8.624;2023-09-19T10:35:32;18.30;99.90
9998;DHT22;5038;53.064;8.624;2023-09-19T10:38:01;18.30;99.90
9998;DHT22;5038;53.064;8.624;2023-09-19T10:40:32;18.40;99.90
9998;DHT22;5038;53.064;8.624;2023-09-19T10:43:03;18.40;99.90
9998;DHT22;5038;53.064;8.624;2023-09-19T10:45:34;18.50;99.90
9998;DHT22;5038;53.064;8.624;2023-09-19T10:48:03;18.60;99.90
9998;DHT22;5038;53.064;8.624;2023-09-19T10:50:35;18.60;99.90
9998;DHT22;5038;53.064;8.624;2023-09-19T10:53:05;18.70;99.90
9998;DHT22;5038;53.064;8.624;2023-09-19T10:55:35;18.80;99.90
9998;DHT22;5038;53.064;8.624;2023-09-19T10:58:06;18.90;99.90
9998;DHT22;5038;53.064;8.624;2023-09-19T11:00:54;18.90;99.90
9998;DHT22;5038;53.064;8.624;2023-09-19T11:03:23;19.00;99.90
9998;DHT22;5038;53.064;8.624;2023-09-19T11:06:08;19.00;99.90
9998;DHT22;5038;53.064;8.624;2023-09-19T11:08:54;19.00;99.90
9998;DHT22;5038;53.064;8.624;2023-09-19T11:11:41;19.00;99.90
9998;DHT22;5038;53.064;8.624;2023-09-19T11:14:29;19.00;99.90
9998;DHT22;5038;53.064;8.624;2023-09-19T11:20:20;19.00;99.90
9998;DHT22;5038;53.064;8.624;2023-09-19T11:23:21;19.00;99.90
9998;DHT22;5038;53.064;8.624;2023-09-19T11:25:50;19.00;99.90
9998;DHT22;5038;53.064;8.624;2023-09-19T11:28:33;19.10;99.90
9998;DHT22;5038;53.064;8.624;2023-09-19T11:31:42;19.10;99.90
9998;DHT22;5038;53.064;8.624;2023-09-19T11:40:29;19.10;99.90
9998;DHT22;5038;53.064;8.624;2023-09-19T11:42:58;19.10;99.90
9998;DHT22;5038;53.064;8.624;2023-09-19T11:46:01;19.20;99.90
9998;DHT22;5038;53.064;8.624;2023-09-19T11:48:32;19.20;99.90
9998;DHT22;5038;53.064;8.624;2023-09-19T11:51:16;19.30;99.90
9998;DHT22;5038;53.064;8.624;2023-09-19T11:53:50;19.30;99.90
9998;DHT22;5038;53.064;8.624;2023-09-19T11:56:20;19.30;99.90
9998;DHT22;5038;53.064;8.624;2023-09-19T11:58:51;19.30;99.90
9998;DHT22;5038;53.064;8.624;2023-09-19T12:01:23;19.30;99.90
9998;DHT22;5038;53.064;8.624;2023-09-19T12:03:57;19.30;99.90
9998;DHT22;5038;53.064;8.624;2023-09-19T12:06:27;19.40;99.90
9998;DHT22;5038;53.064;8.624;2023-09-19T12:08:56;19.40;99.90
9998;DHT22;5038;53.064;8.624;2023-09-19T12:11:29;19.40;99.90
9998;DHT22;5038;53.064;8.624;2023-09-19T12:14:01;19.50;99.90
9998;DHT22;5038;53.064;8.624;2023-09-19T12:16:31;19.50;99.90
9998;DHT22;5038;53.064;8.624;2023-09-19T12:19:20;19.50;99.90
9998;DHT22;5038;53.064;8.624;2023-09-19T12:21:57;19.50;99.90
9998;DHT22;5038;53.064;8.624;2023-09-19T12:24:28;19.50;99.90
9998;DHT22;5038;53.064;8.624;2023-09-19T12:27:02;19.50;99.90
9998;DHT22;5038;53.064;8.624;2023-09-19T12:29:42;19.60;99.90
9998;DHT22;5038;53.064;8.624;2023-09-19T12:32:11;19.60;99.90
9998;DHT22;5038;53.064;8.624;2023-09-19T12:34:41;19.60;99.90
9998;DHT22;5038;53.064;8.624;2023-09-19T12:37:11;19.60;99.90
9998;DHT22;5038;53.064;8.624;2023-09-19T12:39:40;19.70;99.90
9998;DHT22;5038;53.064;8.624;2023-09-19T12:42:10;19.70;99.90
9998;DHT22;5038;53.064;8.624;2023-09-19T12:44:41;19.70;99.90
9998;DHT22;5038;53.064;8.624;2023-09-19T12:47:12;19.80;99.90
9998;DHT22;5038;53.064;8.624;2023-09-19T12:50:11;19.80;99.90
9998;DHT22;5038;53.064;8.624;2023-09-19T12:52:46;19.80;99.90
9998;DHT22;5038;53.064;8.624;2023-09-19T12:55:26;19.90;99.90
9998;DHT22;5038;53.064;8.624;2023-09-19T12:57:59;20.00;99.90
9998;DHT22;5038;53.064;8.624;2023-09-19T13:00:33;20.00;99.90
9998;DHT22;5038;53.064;8.624;2023-09-19T13:03:16;20.00;99.90
9998;DHT22;5038;53.064;8.624;2023-09-19T13:05:51;20.10;99.90
9998;DHT22;5038;53.064;8.624;2023-09-19T13:08:25;20.10;99.90
9998;DHT22;5038;53.064;8.624;2023-09-19T13:11:06;20.10;99.90
9998;DHT22;5038;53.064;8.624;2023-09-19T13:13:38;20.10;99.90
9998;DHT22;5038;53.064;8.624;2023-09-19T13:16:07;20.20;99.90
9998;DHT22;5038;53.064;8.624;2023-09-19T13:18:43;20.20;99.90
9998;DHT22;5038;53.064;8.624;2023-09-19T13:21:14;20.30;99.90
9998;DHT22;5038;53.064;8.624;2023-09-19T13:23:52;20.30;99.90
9998;DHT22;5038;53.064;8.624;2023-09-19T13:26:21;20.40;99.90
9998;DHT22;5038;53.064;8.624;2023-09-19T13:28:49;20.50;99.90
9998;DHT22;5038;53.064;8.624;2023-09-19T13:31:17;20.50;99.90
9998;DHT22;5038;53.064;8.624;2023-09-19T13:33:47;20.50;99.90
9998;DHT22;5038;53.064;8.624;2023-09-19T13:36:18;20.60;99.90
9998;DHT22;5038;53.064;8.624;2023-09-19T13:38:46;20.60;99.90
9998;DHT22;5038;53.064;8.624;2023-09-19T13:41:16;20.60;99.90
9998;DHT22;5038;53.064;8.624;2023-09-19T13:43:44;20.70;99.90
9998;DHT22;5038;53.064;8.624;2023-09-19T13:46:16;20.60;99.90
9998;DHT22;5038;53.064;8.624;2023-09-19T13:48:52;20.60;99.90
9998;DHT22;5038;53.064;8.624;2023-09-19T13:51:23;20.60;99.90
9998;DHT22;5038;53.064;8.624;2023-09-19T13:53:52;20.50;99.90
9998;DHT22;5038;53.064;8.624;2023-09-19T13:56:20;20.50;99.90
9998;DHT22;5038;53.064;8.624;2023-09-19T13:58:49;20.50;99.90
9998;DHT22;5038;53.064;8.624;2023-09-19T14:01:17;20.50;99.90
9998;DHT22;5038;53.064;8.624;2023-09-19T14:03:45;20.60;99.90
9998;DHT22;5038;53.064;8.624;2023-09-19T14:06:14;20.60;99.90
9998;DHT22;5038;53.064;8.624;2023-09-19T14:08:43;20.60;99.90
9998;DHT22;5038;53.064;8.624;2023-09-19T14:11:14;20.60;99.90
9998;DHT22;5038;53.064;8.624;2023-09-19T14:13:43;20.60;99.90
9998;DHT22;5038;53.064;8.624;2023-09-19T14:16:16;20.60;99.90
9998;DHT22;5038;53.064;8.624;2023-09-19T14:18:45;20.60;99.90
9998;DHT22;5038;53.064;8.624;2023-09-19T14:21:13;20.60;99.90
9998;DHT22;5038;53.064;8.624;2023-09-19T14:23:43;20.50;99.90
9998;DHT22;5038;53.064;8.624;2023-09-19T14:26:12;20.50;99.90
9998;DHT22;5038;53.064;8.624;2023-09-19T14:28:41;20.40;99.90
9998;DHT22;5038;53.064;8.624;2023-09-19T14:31:10;20.40;99.90
9998;DHT22;5038;53.064;8.624;2023-09-19T14:33:38;20.40;99.90
9998;DHT22;5038;53.064;8.624;2023-09-19T14:36:08;20.40;99.90
9998;DHT22;5038;53.064;8.624;2023-09-19T14:38:38;20.30;99.90
9998;DHT22;5038;53.064;8.624;2023-09-19T14:41:08;20.40;99.90
9998;DHT22;5038;53.064;8.624;2023-09-19T14:43:36;20.40;99.90
9998;DHT22;5038;53.064;8.624;2023-09-19T14:46:04;20.40;99.90
9998;DHT22;5038;53.064;8.624;2023-09-19T14:48:34;20.40;99.90
9998;DHT22;5038;53.064;8.624;2023-09-19T14:51:03;20.40;99.90
9998;DHT22;5038;53.064;8.624;2023-09-19T14:53:31;20.30;99.90
9998;DHT22;5038;53.064;8.624;2023-09-19T14:56:00;20.30;99.90
9998;DHT22;5038;53.064;8.624;2023-09-19T14:58:31;20.30;99.90
9998;DHT22;5038;53.064;8.624;2023-09-19T15:01:05;20.30;99.90
9998;DHT22;5038;53.064;8.624;2023-09-19T15:03:33;20.30;99.90
9998;DHT22;5038;53.064;8.624;2023-09-19T15:06:04;20.30;99.90
9998;DHT22;5038;53.064;8.624;2023-09-19T15:08:33;20.30;99.90
9998;DHT22;5038;53.064;8.624;2023-09-19T15:11:02;20.30;99.90
9998;DHT22;5038;53.064;8.624;2023-09-19T15:13:36;20.20;99.90
9998;DHT22;5038;53.064;8.624;2023-09-19T15:16:05;20.20;99.90
9998;DHT22;5038;53.064;8.624;2023-09-19T15:18:36;20.20;99.90
9998;DHT22;5038;53.064;8.624;2023-09-19T15:21:07;20.20;99.90
9998;DHT22;5038;53.064;8.624;2023-09-19T15:23:36;20.20;99.90
9998;DHT22;5038;53.064;8.624;2023-09-19T15:26:06;20.10;99.90
9998;DHT22;5038;53.064;8.624;2023-09-19T15:28:36;20.10;99.90
9998;DHT22;5038;53.064;8.624;2023-09-19T15:31:07;20.10;99.90
9998;DHT22;5038;53.064;8.624;2023-09-19T15:33:35;20.10;99.90
9998;DHT22;5038;53.064;8.624;2023-09-19T15:36:05;20.00;99.90
9998;DHT22;5038;53.064;8.624;2023-09-19T15:38:57;20.10;99.90
9998;DHT22;5038;53.064;8.624;2023-09-19T15:41:28;20.00;99.90
9998;DHT22;5038;53.064;8.624;2023-09-19T15:43:59;20.00;99.90
9998;DHT22;5038;53.064;8.624;2023-09-19T15:46:29;20.00;99.90
9998;DHT22;5038;53.064;8.624;2023-09-19T15:48:57;20.00;99.90
9998;DHT22;5038;53.064;8.624;2023-09-19T15:51:27;19.90;99.90
9998;DHT22;5038;53.064;8.624;2023-09-19T15:53:56;19.90;99.90
9998;DHT22;5038;53.064;8.624;2023-09-19T15:56:27;19.90;99.90
9998;DHT22;5038;53.064;8.624;2023-09-19T15:58:55;19.90;99.90
9998;DHT22;5038;53.064;8.624;2023-09-19T16:01:25;19.90;99.90
9998;DHT22;5038;53.064;8.624;2023-09-19T16:03:54;19.80;99.90
9998;DHT22;5038;53.064;8.624;2023-09-19T16:06:38;19.80;99.90
9998;DHT22;5038;53.064;8.624;2023-09-19T16:09:06;19.80;99.90
9998;DHT22;5038;53.064;8.624;2023-09-19T16:11:36;19.80;99.90
9998;DHT22;5038;53.064;8.624;2023-09-19T16:14:04;19.80;99.90
9998;DHT22;5038;53.064;8.624;2023-09-19T16:16:34;19.80;99.90
9998;DHT22;5038;53.064;8.624;2023-09-19T16:19:04;19.80;99.90
9998;DHT22;5038;53.064;8.624;2023-09-19T16:21:37;19.80;99.90
9998;DHT22;5038;53.064;8.624;2023-09-19T16:24:07;19.80;99.90
9998;DHT22;5038;53.064;8.624;2023-09-19T16:26:37;19.80;99.90
9998;DHT22;5038;53.064;8.624;2023-09-19T16:29:05;19.70;99.90
9998;DHT22;5038;53.064;8.624;2023-09-19T16:31:35;19.70;99.90
9998;DHT22;5038;53.064;8.624;2023-09-19T16:34:03;19.70;99.90
9998;DHT22;5038;53.064;8.624;2023-09-19T16:36:31;19.70;99.90
9998;DHT22;5038;53.064;8.624;2023-09-19T16:39:01;19.70;99.90